createdAt,value
2019-03-04T00:00:23.881Z,986.08
2019-03-04T00:01:23.954Z,986.15
2019-03-04T00:02:23.816Z,986.10
2019-03-04T00:03:27.885Z,986.09
2019-03-04T00:04:23.853Z,986.08
2019-03-04T00:05:23.808Z,986.12
2019-03-04T00:06:23.812Z,985.90
2019-03-04T00:07:23.758Z,986.06
2019-03-04T00:08:25.367Z,985.86
2019-03-04T00:09:23.747Z,986.05
2019-03-04T00:10:24.092Z,986.09
2019-03-04T00:11:23.763Z,985.99
2019-03-04T00:12:23.795Z,986.17
2019-03-04T00:13:25.674Z,985.90
2019-03-04T00:14:24.413Z,986.18
2019-03-04T00:15:23.903Z,985.74
2019-03-04T00:16:23.675Z,985.86
2019-03-04T00:17:23.706Z,985.93
2019-03-04T00:18:23.687Z,985.94
2019-03-04T00:19:23.642Z,985.51
2019-03-04T00:20:23.638Z,985.77
2019-03-04T00:21:23.633Z,985.74
2019-03-04T00:22:23.695Z,985.83
2019-03-04T00:23:24.716Z,985.77
2019-03-04T00:24:23.617Z,985.66
2019-03-04T00:25:23.631Z,985.59
2019-03-04T00:26:26.364Z,985.71
2019-03-04T00:27:23.751Z,985.32
2019-03-04T00:28:23.556Z,985.63
2019-03-04T00:29:23.698Z,985.55
2019-03-04T00:30:23.538Z,985.22
2019-03-04T00:31:23.502Z,985.40
2019-03-04T00:32:23.492Z,985.42
2019-03-04T00:33:23.470Z,985.74
2019-03-04T00:34:24.256Z,985.62
2019-03-04T00:35:23.462Z,985.35
2019-03-04T00:36:25.376Z,985.49
2019-03-04T00:37:23.500Z,985.34
2019-03-04T00:38:23.555Z,985.40
2019-03-04T00:39:24.169Z,985.21
2019-03-04T00:40:23.413Z,985.22
2019-03-04T00:41:23.546Z,985.26
2019-03-04T00:42:23.390Z,985.15
2019-03-04T00:43:24.363Z,985.23
2019-03-04T00:44:23.441Z,984.94
2019-03-04T00:45:23.405Z,985.16
2019-03-04T00:46:23.349Z,985.09
2019-03-04T00:47:23.343Z,984.99
2019-03-04T00:48:23.308Z,984.89
2019-03-04T00:49:23.345Z,984.92
2019-03-04T00:50:23.322Z,984.96
2019-03-04T00:51:23.468Z,984.98
2019-03-04T00:52:23.426Z,984.80
2019-03-04T00:53:24.401Z,984.80
2019-03-04T00:54:23.243Z,984.71
2019-03-04T00:55:24.886Z,985.04
2019-03-04T00:56:23.444Z,984.88
2019-03-04T00:57:23.236Z,984.98
2019-03-04T00:58:23.215Z,984.80
2019-03-04T00:59:23.245Z,984.93
2019-03-04T01:00:25.879Z,984.65
2019-03-04T01:01:23.185Z,984.69
2019-03-04T01:02:23.167Z,984.71
2019-03-04T01:03:23.147Z,984.90
2019-03-04T01:04:23.178Z,984.75
2019-03-04T01:05:23.152Z,984.81
2019-03-04T01:06:23.110Z,984.67
2019-03-04T01:07:23.235Z,984.74
2019-03-04T01:08:23.090Z,984.71
2019-03-04T01:09:23.085Z,984.71
2019-03-04T01:10:23.107Z,984.76
2019-03-04T01:11:23.202Z,984.80
2019-03-04T01:12:23.048Z,984.69
2019-03-04T01:13:23.214Z,984.66
2019-03-04T01:14:23.195Z,984.54
2019-03-04T01:15:23.047Z,984.66
2019-03-04T01:16:23.057Z,984.53
2019-03-04T01:17:23.020Z,984.50
2019-03-04T01:18:23.028Z,984.52
2019-03-04T01:19:23.062Z,984.45
2019-03-04T01:20:22.969Z,984.39
2019-03-04T01:21:23.761Z,984.58
2019-03-04T01:22:23.034Z,984.39
2019-03-04T01:23:23.923Z,984.52
2019-03-04T01:24:22.915Z,984.49
2019-03-04T01:25:22.954Z,984.34
2019-03-04T01:26:22.934Z,984.35
2019-03-04T01:27:22.892Z,984.27
2019-03-04T01:28:22.863Z,984.19
2019-03-04T01:29:22.856Z,984.11
2019-03-04T01:30:23.365Z,984.16
2019-03-04T01:31:22.882Z,984.22
2019-03-04T01:32:22.820Z,984.19
2019-03-04T01:33:22.812Z,983.99
2019-03-04T01:34:22.924Z,984.21
2019-03-04T01:35:22.895Z,984.26
2019-03-04T01:36:22.779Z,984.16
2019-03-04T01:37:22.847Z,984.00
2019-03-04T01:38:22.781Z,983.76
2019-03-04T01:39:22.793Z,984.05
2019-03-04T01:40:22.953Z,983.86
2019-03-04T01:41:23.456Z,983.88
2019-03-04T01:42:22.803Z,983.51
2019-03-04T01:43:22.796Z,983.60
2019-03-04T01:44:23.852Z,983.69
2019-03-04T01:45:22.743Z,983.69
2019-03-04T01:46:22.707Z,983.63
2019-03-04T01:47:22.889Z,983.79
2019-03-04T01:48:25.656Z,983.74
2019-03-04T01:49:22.661Z,983.81
2019-03-04T01:50:22.629Z,983.92
2019-03-04T01:51:22.673Z,983.79
2019-03-04T01:52:22.704Z,983.65
2019-03-04T01:53:22.651Z,983.71
2019-03-04T01:54:22.579Z,983.69
2019-03-04T01:55:22.617Z,983.56
2019-03-04T01:56:22.775Z,983.52
2019-03-04T01:57:22.715Z,983.66
2019-03-04T01:58:22.572Z,983.40
2019-03-04T01:59:22.739Z,983.43
2019-03-04T02:00:22.598Z,983.41
2019-03-04T02:01:22.502Z,983.52
2019-03-04T02:02:22.501Z,983.38
2019-03-04T02:03:23.146Z,983.37
2019-03-04T02:04:22.470Z,983.51
2019-03-04T02:05:22.453Z,983.33
2019-03-04T02:06:22.455Z,983.29
2019-03-04T02:07:23.467Z,983.21
2019-03-04T02:08:22.450Z,983.16
2019-03-04T02:09:22.403Z,983.08
2019-03-04T02:10:22.399Z,983.19
2019-03-04T02:11:23.449Z,983.19
2019-03-04T02:12:22.421Z,983.05
2019-03-04T02:13:22.414Z,983.03
2019-03-04T02:14:22.868Z,982.98
2019-03-04T02:15:22.349Z,983.00
2019-03-04T02:16:22.396Z,983.18
2019-03-04T02:17:22.342Z,983.00
2019-03-04T02:18:22.367Z,982.92
2019-03-04T02:19:22.327Z,982.94
2019-03-04T02:20:22.284Z,982.68
2019-03-04T02:21:23.344Z,983.05
2019-03-04T02:22:22.287Z,982.42
2019-03-04T02:23:22.381Z,982.55
2019-03-04T02:24:23.174Z,982.70
2019-03-04T02:25:22.231Z,982.64
2019-03-04T02:26:22.220Z,982.77
2019-03-04T02:27:22.264Z,982.95
2019-03-04T02:28:22.198Z,982.83
2019-03-04T02:29:22.268Z,982.65
2019-03-04T02:30:22.866Z,982.85
2019-03-04T02:31:22.176Z,982.60
2019-03-04T02:32:22.163Z,982.54
2019-03-04T02:33:22.228Z,982.83
2019-03-04T02:34:22.221Z,982.54
2019-03-04T02:35:22.130Z,982.75
2019-03-04T02:36:22.157Z,982.73
2019-03-04T02:37:22.211Z,982.97
2019-03-04T02:38:22.099Z,982.69
2019-03-04T02:39:22.072Z,982.56
2019-03-04T02:40:22.129Z,982.70
2019-03-04T02:41:22.065Z,982.68
2019-03-04T02:42:22.899Z,982.70
2019-03-04T02:43:22.866Z,982.40
2019-03-04T02:44:22.021Z,982.29
2019-03-04T02:45:22.049Z,982.35
2019-03-04T02:46:22.011Z,982.31
2019-03-04T02:47:21.994Z,982.32
2019-03-04T02:48:22.105Z,982.33
2019-03-04T02:49:21.963Z,982.44
2019-03-04T02:50:21.989Z,982.38
2019-03-04T02:51:21.945Z,982.30
2019-03-04T02:52:22.146Z,982.39
2019-03-04T02:53:21.969Z,982.32
2019-03-04T02:54:21.913Z,981.90
2019-03-04T02:55:21.948Z,981.77
2019-03-04T02:56:21.901Z,981.93
2019-03-04T02:57:21.884Z,981.79
2019-03-04T02:58:21.924Z,982.04
2019-03-04T02:59:21.877Z,981.62
2019-03-04T03:00:21.848Z,981.83
2019-03-04T03:01:21.869Z,982.14
2019-03-04T03:02:21.819Z,982.31
2019-03-04T03:03:21.814Z,982.63
2019-03-04T03:04:21.871Z,981.58
2019-03-04T03:05:21.787Z,981.83
2019-03-04T03:06:21.806Z,981.86
2019-03-04T03:07:21.839Z,981.94
2019-03-04T03:08:21.786Z,981.44
2019-03-04T03:09:21.769Z,981.56
2019-03-04T03:10:21.751Z,981.73
2019-03-04T03:11:22.709Z,981.82
2019-03-04T03:12:21.764Z,981.55
2019-03-04T03:13:21.762Z,981.72
2019-03-04T03:14:21.696Z,981.68
2019-03-04T03:15:22.723Z,981.51
2019-03-04T03:16:21.738Z,981.63
2019-03-04T03:17:21.655Z,981.53
2019-03-04T03:18:21.657Z,981.71
2019-03-04T03:19:21.684Z,981.52
2019-03-04T03:20:21.685Z,981.30
2019-03-04T03:21:21.608Z,981.28
2019-03-04T03:22:21.625Z,981.11
2019-03-04T03:23:21.636Z,980.98
2019-03-04T03:24:22.368Z,981.07
2019-03-04T03:25:22.629Z,980.96
2019-03-04T03:26:22.454Z,980.98
2019-03-04T03:27:24.919Z,980.92
2019-03-04T03:28:22.444Z,980.89
2019-03-04T03:29:21.519Z,980.59
2019-03-04T03:30:21.531Z,980.52
2019-03-04T03:31:21.513Z,980.53
2019-03-04T03:32:21.494Z,980.46
2019-03-04T03:33:21.513Z,980.29
2019-03-04T03:34:21.493Z,980.31
2019-03-04T03:35:21.477Z,980.32
2019-03-04T03:36:21.459Z,980.43
2019-03-04T03:37:22.383Z,980.34
2019-03-04T03:38:22.181Z,980.44
2019-03-04T03:39:21.415Z,980.53
2019-03-04T03:40:21.432Z,980.74
2019-03-04T03:41:21.394Z,980.73
2019-03-04T03:42:21.394Z,980.71
2019-03-04T03:43:21.425Z,980.64
2019-03-04T03:44:21.381Z,980.58
2019-03-04T03:45:21.371Z,980.65
2019-03-04T03:46:21.406Z,980.47
2019-03-04T03:47:21.414Z,980.52
2019-03-04T03:48:21.343Z,980.44
2019-03-04T03:49:21.307Z,980.43
2019-03-04T03:50:21.316Z,980.37
2019-03-04T03:51:21.292Z,980.41
2019-03-04T03:52:21.287Z,980.26
2019-03-04T03:53:21.294Z,980.39
2019-03-04T03:54:21.248Z,980.39
2019-03-04T03:55:21.889Z,980.42
2019-03-04T03:56:21.332Z,980.27
2019-03-04T03:57:21.886Z,980.30
2019-03-04T03:58:21.234Z,980.19
2019-03-04T03:59:21.237Z,980.31
2019-03-04T04:00:21.935Z,980.23
2019-03-04T04:01:21.187Z,980.24
2019-03-04T04:02:21.214Z,980.11
2019-03-04T04:03:21.188Z,980.22
2019-03-04T04:04:21.141Z,980.05
2019-03-04T04:05:21.126Z,980.05
2019-03-04T04:06:21.127Z,979.85
2019-03-04T04:07:21.116Z,979.89
2019-03-04T04:08:21.178Z,979.97
2019-03-04T04:09:21.155Z,979.98
2019-03-04T04:10:21.083Z,979.89
2019-03-04T04:11:21.099Z,979.92
2019-03-04T04:12:21.877Z,979.75
2019-03-04T04:13:21.881Z,979.81
2019-03-04T04:14:21.163Z,979.60
2019-03-04T04:15:21.037Z,979.84
2019-03-04T04:16:21.102Z,979.79
2019-03-04T04:17:21.036Z,979.69
2019-03-04T04:18:20.994Z,979.53
2019-03-04T04:19:21.016Z,979.51
2019-03-04T04:20:20.977Z,979.36
2019-03-04T04:21:20.954Z,979.69
2019-03-04T04:22:21.030Z,979.50
2019-03-04T04:23:23.910Z,979.42
2019-03-04T04:24:20.963Z,979.60
2019-03-04T04:25:21.887Z,979.59
2019-03-04T04:26:20.900Z,979.18
2019-03-04T04:27:20.895Z,979.33
2019-03-04T04:28:20.869Z,979.15
2019-03-04T04:29:20.866Z,978.95
2019-03-04T04:30:20.947Z,978.89
2019-03-04T04:31:20.845Z,978.92
2019-03-04T04:32:20.847Z,978.91
2019-03-04T04:33:20.818Z,978.81
2019-03-04T04:34:21.508Z,978.97
2019-03-04T04:35:22.679Z,979.02
2019-03-04T04:36:23.482Z,978.89
2019-03-04T04:37:21.000Z,978.81
2019-03-04T04:38:21.027Z,978.82
2019-03-04T04:39:20.790Z,978.81
2019-03-04T04:40:22.678Z,978.84
2019-03-04T04:41:20.747Z,978.62
2019-03-04T04:42:21.458Z,978.64
2019-03-04T04:43:20.772Z,978.66
2019-03-04T04:44:20.697Z,978.55
2019-03-04T04:45:21.733Z,978.45
2019-03-04T04:46:20.708Z,978.37
2019-03-04T04:47:21.472Z,978.41
2019-03-04T04:48:20.643Z,978.39
2019-03-04T04:49:20.770Z,978.59
2019-03-04T04:50:23.839Z,978.51
2019-03-04T04:51:20.633Z,978.38
2019-03-04T04:52:20.608Z,978.54
2019-03-04T04:53:20.629Z,978.52
2019-03-04T04:54:20.618Z,978.58
2019-03-04T04:55:20.579Z,978.47
2019-03-04T04:56:20.587Z,978.55
2019-03-04T04:57:20.547Z,978.44
2019-03-04T04:58:20.541Z,978.60
2019-03-04T04:59:20.531Z,978.68
2019-03-04T05:00:20.517Z,978.59
2019-03-04T05:01:20.530Z,978.41
2019-03-04T05:02:20.508Z,978.73
2019-03-04T05:03:20.481Z,978.59
2019-03-04T05:04:20.505Z,978.67
2019-03-04T05:05:20.651Z,978.36
2019-03-04T05:06:20.554Z,978.53
2019-03-04T05:07:20.438Z,978.52
2019-03-04T05:08:20.423Z,978.21
2019-03-04T05:09:20.416Z,978.41
2019-03-04T05:10:22.416Z,978.40
2019-03-04T05:11:20.395Z,978.42
2019-03-04T05:12:20.411Z,978.51
2019-03-04T05:13:20.373Z,978.52
2019-03-04T05:14:20.413Z,978.56
2019-03-04T05:15:20.449Z,976.95
2019-03-04T05:16:20.933Z,978.15
2019-03-04T05:17:20.407Z,978.49
2019-03-04T05:18:20.957Z,978.29
2019-03-04T05:19:20.338Z,977.80
2019-03-04T05:20:20.307Z,978.26
2019-03-04T05:21:20.282Z,978.39
2019-03-04T05:22:20.321Z,978.09
2019-03-04T05:23:20.366Z,978.18
2019-03-04T05:24:20.319Z,978.32
2019-03-04T05:25:20.244Z,978.35
2019-03-04T05:26:20.314Z,977.39
2019-03-04T05:27:20.210Z,978.02
2019-03-04T05:28:20.367Z,977.87
2019-03-04T05:29:20.199Z,977.84
2019-03-04T05:30:25.898Z,978.01
2019-03-04T05:31:20.163Z,977.88
2019-03-04T05:32:20.905Z,977.75
2019-03-04T05:33:20.179Z,977.79
2019-03-04T05:34:20.154Z,978.01
2019-03-04T05:35:20.136Z,977.71
2019-03-04T05:36:20.160Z,977.58
2019-03-04T05:37:20.146Z,977.79
2019-03-04T05:38:21.903Z,977.55
2019-03-04T05:39:20.098Z,977.63
2019-03-04T05:40:20.115Z,977.55
2019-03-04T05:41:20.073Z,977.38
2019-03-04T05:42:20.070Z,977.43
2019-03-04T05:43:21.717Z,977.17
2019-03-04T05:44:20.025Z,977.50
2019-03-04T05:45:20.011Z,977.48
2019-03-04T05:46:20.012Z,977.33
2019-03-04T05:47:19.996Z,977.32
2019-03-04T05:48:20.073Z,977.46
2019-03-04T05:49:19.979Z,977.30
2019-03-04T05:50:20.997Z,977.33
2019-03-04T05:51:21.869Z,977.37
2019-03-04T05:52:19.938Z,977.21
2019-03-04T05:53:19.931Z,977.20
2019-03-04T05:54:19.945Z,977.24
2019-03-04T05:55:19.933Z,977.13
2019-03-04T05:56:19.896Z,977.29
2019-03-04T05:57:19.885Z,977.14
2019-03-04T05:58:19.888Z,977.32
2019-03-04T05:59:20.277Z,977.05
2019-03-04T06:00:19.847Z,977.30
2019-03-04T06:01:21.371Z,977.31
2019-03-04T06:02:19.830Z,977.14
2019-03-04T06:03:19.821Z,977.28
2019-03-04T06:04:20.382Z,977.04
2019-03-04T06:05:19.814Z,977.07
2019-03-04T06:06:19.839Z,977.25
2019-03-04T06:07:19.770Z,977.23
2019-03-04T06:08:19.760Z,976.89
2019-03-04T06:09:20.805Z,977.22
2019-03-04T06:10:19.948Z,977.29
2019-03-04T06:11:19.728Z,977.12
2019-03-04T06:12:19.730Z,976.95
2019-03-04T06:13:20.396Z,977.31
2019-03-04T06:14:19.686Z,977.14
2019-03-04T06:15:19.792Z,977.25
2019-03-04T06:16:19.715Z,977.01
2019-03-04T06:17:19.664Z,977.03
2019-03-04T06:18:19.806Z,976.97
2019-03-04T06:19:19.661Z,976.83
2019-03-04T06:20:19.707Z,976.86
2019-03-04T06:21:19.656Z,977.03
2019-03-04T06:22:19.620Z,977.10
2019-03-04T06:23:19.598Z,977.03
2019-03-04T06:24:19.652Z,976.67
2019-03-04T06:25:19.656Z,976.91
2019-03-04T06:26:19.576Z,976.96
2019-03-04T06:27:20.474Z,977.25
2019-03-04T06:28:19.559Z,976.87
2019-03-04T06:29:19.540Z,976.84
2019-03-04T06:30:20.514Z,976.82
2019-03-04T06:31:20.275Z,977.10
2019-03-04T06:32:23.493Z,977.11
2019-03-04T06:33:19.749Z,976.88
2019-03-04T06:34:19.523Z,976.58
2019-03-04T06:35:20.442Z,976.88
2019-03-04T06:36:19.450Z,976.85
2019-03-04T06:37:19.463Z,976.76
2019-03-04T06:38:19.432Z,976.77
2019-03-04T06:39:19.412Z,977.30
2019-03-04T06:40:19.507Z,977.29
2019-03-04T06:41:19.418Z,977.17
2019-03-04T06:42:19.397Z,977.05
2019-03-04T06:43:19.468Z,977.03
2019-03-04T06:44:19.355Z,977.10
2019-03-04T06:45:19.353Z,977.24
2019-03-04T06:46:19.404Z,977.11
2019-03-04T06:47:19.379Z,977.27
2019-03-04T06:48:19.406Z,977.37
2019-03-04T06:49:19.342Z,977.38
2019-03-04T06:50:19.327Z,977.29
2019-03-04T06:51:19.416Z,976.79
2019-03-04T06:52:19.288Z,977.39
2019-03-04T06:53:19.270Z,976.93
2019-03-04T06:54:19.278Z,976.88
2019-03-04T06:55:19.940Z,977.10
2019-03-04T06:56:19.300Z,977.09
2019-03-04T06:57:28.213Z,977.67
2019-03-04T06:58:20.229Z,977.29
2019-03-04T06:59:19.185Z,977.42
2019-03-04T07:00:19.187Z,977.01
2019-03-04T07:01:19.184Z,977.13
2019-03-04T07:02:19.930Z,976.83
2019-03-04T07:03:19.154Z,977.09
2019-03-04T07:04:19.128Z,976.63
2019-03-04T07:05:19.127Z,976.99
2019-03-04T07:06:22.888Z,977.67
2019-03-04T07:07:19.150Z,977.08
2019-03-04T07:08:19.092Z,977.31
2019-03-04T07:09:19.083Z,977.36
2019-03-04T07:10:19.263Z,977.35
2019-03-04T07:11:21.957Z,977.37
2019-03-04T07:12:19.060Z,977.50
2019-03-04T07:13:19.052Z,977.54
2019-03-04T07:14:19.023Z,977.38
2019-03-04T07:15:19.024Z,977.35
2019-03-04T07:16:19.039Z,976.49
2019-03-04T07:17:19.150Z,977.79
2019-03-04T07:18:19.042Z,978.22
2019-03-04T07:19:19.010Z,977.70
2019-03-04T07:20:21.931Z,977.46
2019-03-04T07:21:18.999Z,977.29
2019-03-04T07:22:19.718Z,977.31
2019-03-04T07:23:18.916Z,977.40
2019-03-04T07:24:18.912Z,977.50
2019-03-04T07:25:18.970Z,977.76
2019-03-04T07:26:18.906Z,977.55
2019-03-04T07:27:18.877Z,977.47
2019-03-04T07:28:19.724Z,977.46
2019-03-04T07:29:18.875Z,977.61
2019-03-04T07:30:18.911Z,977.28
2019-03-04T07:31:19.001Z,977.40
2019-03-04T07:32:18.980Z,977.42
2019-03-04T07:33:18.842Z,978.01
2019-03-04T07:34:18.809Z,976.70
2019-03-04T07:35:18.947Z,977.57
2019-03-04T07:36:18.772Z,977.60
2019-03-04T07:37:18.770Z,977.66
2019-03-04T07:38:18.772Z,977.67
2019-03-04T07:39:18.813Z,977.76
2019-03-04T07:40:18.746Z,977.81
2019-03-04T07:41:18.711Z,977.89
2019-03-04T07:42:18.772Z,977.95
2019-03-04T07:43:18.726Z,977.90
2019-03-04T07:44:18.736Z,977.91
2019-03-04T07:45:18.674Z,978.08
2019-03-04T07:46:18.675Z,978.01
2019-03-04T07:47:19.665Z,978.46
2019-03-04T07:48:18.684Z,978.05
2019-03-04T07:49:18.618Z,977.86
2019-03-04T07:50:18.662Z,978.50
2019-03-04T07:51:18.638Z,978.59
2019-03-04T07:52:18.763Z,978.41
2019-03-04T07:53:19.205Z,978.39
2019-03-04T07:54:19.221Z,978.20
2019-03-04T07:55:21.403Z,977.47
2019-03-04T07:56:18.721Z,977.98
2019-03-04T07:57:18.563Z,978.51
2019-03-04T07:58:18.536Z,978.35
2019-03-04T07:59:18.544Z,978.66
2019-03-04T08:00:18.531Z,978.50
2019-03-04T08:01:19.389Z,978.90
2019-03-04T08:02:18.626Z,978.62
2019-03-04T08:03:18.465Z,978.66
2019-03-04T08:04:19.217Z,978.29
2019-03-04T08:05:18.469Z,978.74
2019-03-04T08:06:18.435Z,978.16
2019-03-04T08:07:18.444Z,978.40
2019-03-04T08:08:18.421Z,978.39
2019-03-04T08:09:18.437Z,978.43
2019-03-04T08:10:18.421Z,978.54
2019-03-04T08:11:18.398Z,978.63
2019-03-04T08:12:18.369Z,978.22
2019-03-04T08:13:18.395Z,978.72
2019-03-04T08:14:19.240Z,978.48
2019-03-04T08:15:18.525Z,978.26
2019-03-04T08:16:18.331Z,978.53
2019-03-04T08:17:18.365Z,978.94
2019-03-04T08:18:18.513Z,978.73
2019-03-04T08:19:18.309Z,978.83
2019-03-04T08:20:18.352Z,978.80
2019-03-04T08:21:18.268Z,978.63
2019-03-04T08:22:18.254Z,978.57
2019-03-04T08:23:18.262Z,978.40
2019-03-04T08:24:18.256Z,978.39
2019-03-04T08:25:19.247Z,978.35
2019-03-04T08:26:18.233Z,978.43
2019-03-04T08:27:18.195Z,978.26
2019-03-04T08:28:18.227Z,978.32
2019-03-04T08:29:18.208Z,978.30
2019-03-04T08:30:18.197Z,978.42
2019-03-04T08:31:18.262Z,978.32
2019-03-04T08:32:18.141Z,978.45
2019-03-04T08:33:18.152Z,978.50
2019-03-04T08:34:18.136Z,978.36
2019-03-04T08:35:18.165Z,978.53
2019-03-04T08:36:18.900Z,978.37
2019-03-04T08:37:18.101Z,978.53
2019-03-04T08:38:18.075Z,978.53
2019-03-04T08:39:18.145Z,978.61
2019-03-04T08:40:18.085Z,978.50
2019-03-04T08:41:18.133Z,978.36
2019-03-04T08:42:18.056Z,978.19
2019-03-04T08:43:18.073Z,978.41
2019-03-04T08:44:18.023Z,978.26
2019-03-04T08:45:18.780Z,978.27
2019-03-04T08:46:18.012Z,978.39
2019-03-04T08:47:17.985Z,978.40
2019-03-04T08:48:17.962Z,978.24
2019-03-04T08:49:18.152Z,977.96
2019-03-04T08:50:18.983Z,978.25
2019-03-04T08:51:18.056Z,977.77
2019-03-04T08:52:17.924Z,978.06
2019-03-04T08:53:17.921Z,978.07
2019-03-04T08:54:17.914Z,978.39
2019-03-04T08:55:17.884Z,978.24
2019-03-04T08:56:20.421Z,977.85
2019-03-04T08:57:17.898Z,978.11
2019-03-04T08:58:17.853Z,978.09
2019-03-04T08:59:17.851Z,978.14
2019-03-04T09:00:17.831Z,978.04
2019-03-04T09:01:17.871Z,978.04
2019-03-04T09:02:17.864Z,977.87
2019-03-04T09:03:17.819Z,977.93
2019-03-04T09:04:17.837Z,977.84
2019-03-04T09:05:17.775Z,977.83
2019-03-04T09:06:20.489Z,978.06
2019-03-04T09:07:17.747Z,977.87
2019-03-04T09:08:17.759Z,977.89
2019-03-04T09:09:17.763Z,977.79
2019-03-04T09:10:17.721Z,978.06
2019-03-04T09:11:18.306Z,977.76
2019-03-04T09:12:17.735Z,978.12
2019-03-04T09:13:18.396Z,977.89
2019-03-04T09:14:17.666Z,977.86
2019-03-04T09:15:17.740Z,977.73
2019-03-04T09:16:18.262Z,977.55
2019-03-04T09:17:17.652Z,977.52
2019-03-04T09:18:17.636Z,977.89
2019-03-04T09:19:17.640Z,977.54
2019-03-04T09:20:17.631Z,977.64
2019-03-04T09:21:18.267Z,977.77
2019-03-04T09:22:17.592Z,977.90
2019-03-04T09:23:17.609Z,977.99
2019-03-04T09:24:17.574Z,977.86
2019-03-04T09:25:17.555Z,977.82
2019-03-04T09:26:17.640Z,977.98
2019-03-04T09:27:20.255Z,977.47
2019-03-04T09:28:17.518Z,977.86
2019-03-04T09:29:20.444Z,977.97
2019-03-04T09:30:17.499Z,977.98
2019-03-04T09:31:17.696Z,977.98
2019-03-04T09:32:17.488Z,978.21
2019-03-04T09:33:17.493Z,977.74
2019-03-04T09:34:18.405Z,978.14
2019-03-04T09:35:17.509Z,977.89
2019-03-04T09:36:17.539Z,977.58
2019-03-04T09:37:17.566Z,978.01
2019-03-04T09:38:18.319Z,977.91
2019-03-04T09:39:17.520Z,977.98
2019-03-04T09:40:17.388Z,977.91
2019-03-04T09:41:17.400Z,977.47
2019-03-04T09:42:17.427Z,977.91
2019-03-04T09:43:18.271Z,978.10
2019-03-04T09:44:17.343Z,977.85
2019-03-04T09:45:17.343Z,977.62
2019-03-04T09:46:17.394Z,977.25
2019-03-04T09:47:17.305Z,977.79
2019-03-04T09:48:18.423Z,978.01
2019-03-04T09:49:17.312Z,977.97
2019-03-04T09:50:17.282Z,978.01
2019-03-04T09:51:24.452Z,977.78
2019-03-04T09:52:18.250Z,977.83
2019-03-04T09:53:17.425Z,977.93
2019-03-04T09:54:18.247Z,978.07
2019-03-04T09:55:17.360Z,977.84
2019-03-04T09:56:17.214Z,978.00
2019-03-04T09:57:17.237Z,977.64
2019-03-04T09:58:17.226Z,977.58
2019-03-04T09:59:17.218Z,978.20
2019-03-04T10:00:17.197Z,978.16
2019-03-04T10:01:17.157Z,978.39
2019-03-04T10:02:17.169Z,978.21
2019-03-04T10:03:17.133Z,978.42
2019-03-04T10:04:17.796Z,978.48
2019-03-04T10:05:17.107Z,979.07
2019-03-04T10:06:17.103Z,977.67
2019-03-04T10:07:17.173Z,978.06
2019-03-04T10:08:17.214Z,978.30
2019-03-04T10:09:17.094Z,978.21
2019-03-04T10:10:17.898Z,978.03
2019-03-04T10:11:19.912Z,978.26
2019-03-04T10:12:18.924Z,977.80
2019-03-04T10:13:17.082Z,977.90
2019-03-04T10:14:17.088Z,977.74
2019-03-04T10:15:17.002Z,978.34
2019-03-04T10:16:18.899Z,978.15
2019-03-04T10:17:17.004Z,978.36
2019-03-04T10:18:16.983Z,978.23
2019-03-04T10:19:16.993Z,978.25
2019-03-04T10:20:18.252Z,978.44
2019-03-04T10:21:16.927Z,978.24
2019-03-04T10:22:16.964Z,978.28
2019-03-04T10:23:16.925Z,978.36
2019-03-04T10:24:17.508Z,977.33
2019-03-04T10:25:18.784Z,978.20
2019-03-04T10:26:22.548Z,978.13
2019-03-04T10:27:17.890Z,978.23
2019-03-04T10:28:16.846Z,977.90
2019-03-04T10:29:16.863Z,978.13
2019-03-04T10:30:16.863Z,978.29
2019-03-04T10:31:17.425Z,978.18
2019-03-04T10:32:16.834Z,978.43
2019-03-04T10:33:16.800Z,977.92
2019-03-04T10:34:16.844Z,978.15
2019-03-04T10:35:16.800Z,978.27
2019-03-04T10:36:16.878Z,978.32
2019-03-04T10:37:16.782Z,978.50
2019-03-04T10:38:22.628Z,978.44
2019-03-04T10:39:22.173Z,978.68
2019-03-04T10:40:19.666Z,978.59
2019-03-04T10:41:16.756Z,978.58
2019-03-04T10:42:16.740Z,978.58
2019-03-04T10:43:16.679Z,979.10
2019-03-04T10:44:16.780Z,978.96
2019-03-04T10:45:18.232Z,979.16
2019-03-04T10:46:16.683Z,978.63
2019-03-04T10:47:16.672Z,979.40
2019-03-04T10:48:16.627Z,979.23
2019-03-04T10:49:16.618Z,979.33
2019-03-04T10:50:16.656Z,979.46
2019-03-04T10:51:18.660Z,979.34
2019-03-04T10:52:16.583Z,979.72
2019-03-04T10:53:16.567Z,979.74
2019-03-04T10:54:16.641Z,979.40
2019-03-04T10:55:16.554Z,979.57
2019-03-04T10:56:17.261Z,979.82
2019-03-04T10:57:16.563Z,979.65
2019-03-04T10:58:16.535Z,979.62
2019-03-04T10:59:16.518Z,979.74
2019-03-04T11:00:16.503Z,979.85
2019-03-04T11:01:16.482Z,979.83
2019-03-04T11:02:16.504Z,979.57
2019-03-04T11:03:16.453Z,979.71
2019-03-04T11:04:16.487Z,979.98
2019-03-04T11:05:16.444Z,979.94
2019-03-04T11:06:16.424Z,979.75
2019-03-04T11:07:17.331Z,979.83
2019-03-04T11:08:16.404Z,979.65
2019-03-04T11:09:16.414Z,979.97
2019-03-04T11:10:16.398Z,980.04
2019-03-04T11:11:16.391Z,979.94
2019-03-04T11:12:20.290Z,979.95
2019-03-04T11:13:16.365Z,979.95
2019-03-04T11:14:16.394Z,979.83
2019-03-04T11:15:16.370Z,979.98
2019-03-04T11:16:16.331Z,979.41
2019-03-04T11:17:16.311Z,979.80
2019-03-04T11:18:16.324Z,979.94
2019-03-04T11:19:16.349Z,980.07
2019-03-04T11:20:16.274Z,980.04
2019-03-04T11:21:16.314Z,979.89
2019-03-04T11:22:16.262Z,979.90
2019-03-04T11:23:16.266Z,980.03
2019-03-04T11:24:16.231Z,980.07
2019-03-04T11:25:16.249Z,980.06
2019-03-04T11:26:16.210Z,980.03
2019-03-04T11:27:16.203Z,979.92
2019-03-04T11:28:17.918Z,980.04
2019-03-04T11:29:16.303Z,980.13
2019-03-04T11:30:16.192Z,980.00
2019-03-04T11:31:16.156Z,980.13
2019-03-04T11:32:16.153Z,980.16
2019-03-04T11:33:16.145Z,980.21
2019-03-04T11:34:16.159Z,980.02
2019-03-04T11:35:16.307Z,980.22
2019-03-04T11:36:16.095Z,980.27
2019-03-04T11:37:16.108Z,980.23
2019-03-04T11:38:16.072Z,980.44
2019-03-04T11:39:16.097Z,980.32
2019-03-04T11:40:16.052Z,980.39
2019-03-04T11:41:16.119Z,980.33
2019-03-04T11:42:16.168Z,980.34
2019-03-04T11:43:16.166Z,980.39
2019-03-04T11:44:16.039Z,980.49
2019-03-04T11:45:16.000Z,980.40
2019-03-04T11:46:16.034Z,980.50
2019-03-04T11:47:15.972Z,980.14
2019-03-04T11:48:15.968Z,980.12
2019-03-04T11:49:16.015Z,980.22
2019-03-04T11:50:15.946Z,980.28
2019-03-04T11:51:15.936Z,980.27
2019-03-04T11:52:15.930Z,980.27
2019-03-04T11:53:15.926Z,980.44
2019-03-04T11:54:16.855Z,980.04
2019-03-04T11:55:15.884Z,980.30
2019-03-04T11:56:15.868Z,980.32
2019-03-04T11:57:15.876Z,980.49
2019-03-04T11:58:15.853Z,980.52
2019-03-04T11:59:15.842Z,980.52
2019-03-04T12:00:15.966Z,980.42
2019-03-04T12:01:15.824Z,980.44
2019-03-04T12:02:15.827Z,980.46
2019-03-04T12:03:15.817Z,980.50
2019-03-04T12:04:15.839Z,980.44
2019-03-04T12:05:15.798Z,980.63
2019-03-04T12:06:15.824Z,980.54
2019-03-04T12:07:15.808Z,980.67
2019-03-04T12:08:16.783Z,980.48
2019-03-04T12:09:15.736Z,980.55
2019-03-04T12:10:15.998Z,980.72
2019-03-04T12:11:15.731Z,980.56
2019-03-04T12:12:15.703Z,980.74
2019-03-04T12:13:15.701Z,980.66
2019-03-04T12:14:15.766Z,980.55
2019-03-04T12:15:15.664Z,980.58
2019-03-04T12:16:15.694Z,980.70
2019-03-04T12:17:15.808Z,980.63
2019-03-04T12:18:15.637Z,980.65
2019-03-04T12:19:15.652Z,980.48
2019-03-04T12:20:15.746Z,980.70
2019-03-04T12:21:16.292Z,980.40
2019-03-04T12:22:15.605Z,980.45
2019-03-04T12:23:15.571Z,980.46
2019-03-04T12:24:15.585Z,980.72
2019-03-04T12:25:15.555Z,980.54
2019-03-04T12:26:18.490Z,980.76
2019-03-04T12:27:15.548Z,980.71
2019-03-04T12:28:15.522Z,980.86